Time;durP1;ratioP1;P1;durP2;ratioP2;P2;SDS_P1;SDS_P2;PMS_P1;PMS_P2;Temp;Humidity;BMP_temperature;BMP_pressure;BME280_temperature;BME280_humidity;BME280_pressure;Samples;Min_cycle;Max_cycle;Signal;HPM_P1;HPM_P2
2023/03/13 00:02:16;;;;;;;;;;;;;;;25.83;38.83;94010.63;4971176;28;7037;-63
2023/03/13 00:04:45;;;;;;;;;;;;;;;25.79;38.89;94003.91;4971950;28;6998;-65
2023/03/13 00:07:41;;;;;;;;;;;;;;;25.76;39.25;94000.19;4965825;28;7228;-63
2023/03/13 00:10:17;;;;;;;;;;;;;;;25.76;39.30;93999.44;4929408;29;6947;-64
2023/03/13 00:12:45;;;;;;;;;;;;;;;25.72;39.09;93994.22;4924981;29;10076;-64
2023/03/13 00:15:13;;;;;;;;;;;;;;;25.72;38.44;93983.22;4920947;29;9359;-63
2023/03/13 00:17:49;;;;;;;;;;;;;;;25.73;38.78;93990.19;4909053;29;9276;-63
2023/03/13 00:20:16;;;;;;;;;;;;;;;25.73;38.96;93989.47;4928476;29;7217;-63
2023/03/13 00:22:44;;;;;;;;;;;;;;;25.71;39.42;93998.25;4929364;29;9416;-63
2023/03/13 00:25:14;;;;;;;;;;;;;;;25.70;39.00;93991.25;4931962;29;9387;-63
2023/03/13 00:27:45;;;;;;;;;;;;;;;25.71;38.52;93986.50;4915534;29;9022;-63
2023/03/13 00:30:14;;;;;;;;;;;;;;;25.70;38.81;93988.50;4917941;29;7039;-63
2023/03/13 00:32:45;;;;;;;;;;;;;;;25.71;38.40;93984.47;4930358;29;7266;-63
2023/03/13 00:35:12;;;;;;;;;;;;;;;25.71;38.87;93973.44;4923023;29;9357;-63
2023/03/13 00:37:39;;;;;;;;;;;;;;;25.69;38.99;93973.22;4914805;29;7048;-62
2023/03/13 00:40:08;;;;;;;;;;;;;;;25.68;39.22;93971.00;4912464;29;9098;-63
2023/03/13 00:42:36;;;;;;;;;;;;;;;25.66;38.81;93968.78;4923083;29;7337;-63
2023/03/13 00:45:05;;;;;;;;;;;;;;;25.64;38.78;93959.53;4923570;29;7059;-63
2023/03/13 00:47:31;;;;;;;;;;;;;;;25.64;38.88;93954.78;4971274;28;9281;-63
2023/03/13 00:49:57;;;;;;;;;;;;;;;25.65;38.89;93964.53;4975160;28;7265;-63
2023/03/13 00:52:23;;;;;;;;;;;;;;;25.64;38.66;93960.28;4963811;28;8782;-63
2023/03/13 00:54:50;;;;;;;;;;;;;;;25.64;38.90;93954.78;4969015;28;9012;-62
2023/03/13 00:57:18;;;;;;;;;;;;;;;25.62;39.54;93951.78;4967053;28;10112;-63
2023/03/13 00:59:46;;;;;;;;;;;;;;;25.64;39.16;93945.78;4965715;28;9411;-63
2023/03/13 01:02:14;;;;;;;;;;;;;;;25.62;39.25;93951.78;4968151;28;8741;-63
2023/03/13 01:04:42;;;;;;;;;;;;;;;25.62;39.31;93951.78;4970260;28;9068;-63
2023/03/13 01:07:10;;;;;;;;;;;;;;;25.62;38.59;93946.28;4997516;28;7120;-63
2023/03/13 01:09:39;;;;;;;;;;;;;;;25.63;38.68;93939.50;4971460;28;7048;-64
2023/03/13 01:12:08;;;;;;;;;;;;;;;25.58;38.87;93929.31;4968584;28;9147;-63
2023/03/13 01:14:36;;;;;;;;;;;;;;;25.61;38.56;93935.78;4981457;28;7049;-63
2023/03/13 01:17:02;;;;;;;;;;;;;;;25.61;38.86;93928.28;4973350;28;8706;-63
2023/03/13 01:19:44;;;;;;;;;;;;;;;25.62;39.31;93926.28;4959532;28;9451;-63
2023/03/13 01:22:16;;;;;;;;;;;;;;;25.60;39.17;93920.53;4969516;28;7248;-63
2023/03/13 01:24:43;;;;;;;;;;;;;;;25.62;38.60;93915.97;4975901;28;9225;-63
2023/03/13 01:27:09;;;;;;;;;;;;;;;25.62;38.95;93920.75;4975769;28;7051;-64
2023/03/13 01:29:37;;;;;;;;;;;;;;;25.60;38.75;93907.50;4972805;28;8740;-64
2023/03/13 01:32:10;;;;;;;;;;;;;;;25.61;39.62;93909.00;5002913;28;7138;-63
2023/03/13 01:34:44;;;;;;;;;;;;;;;25.60;39.02;93907.50;4967039;28;8655;-63
2023/03/13 01:37:19;;;;;;;;;;;;;;;25.60;39.31;93909.53;4975740;28;8939;-64
2023/03/13 01:40:05;;;;;;;;;;;;;;;25.60;38.60;93901.25;4983841;28;7264;-63
2023/03/13 01:43:23;;;;;;;;;;;;;;;25.60;38.71;93904.03;4981296;28;7100;-63
2023/03/13 01:46:01;;;;;;;;;;;;;;;25.60;38.78;93907.50;4934901;29;7045;-63
2023/03/13 01:48:48;;;;;;;;;;;;;;;25.59;39.66;93911.53;4933618;29;7241;-63
2023/03/13 01:51:42;;;;;;;;;;;;;;;25.57;39.73;93908.56;4935570;29;9444;-63
2023/03/13 01:54:23;;;;;;;;;;;;;;;25.56;38.70;93901.56;4928494;29;7183;-63
2023/03/13 01:57:28;;;;;;;;;;;;;;;25.56;38.81;93900.78;4942843;28;7043;-64
2023/03/13 02:00:42;;;;;;;;;;;;;;;25.56;39.57;93898.03;4904792;29;9405;-63
2023/03/13 02:03:16;;;;;;;;;;;;;;;25.55;39.48;93897.31;4896364;29;8954;-64
2023/03/13 02:05:48;;;;;;;;;;;;;;;25.55;38.89;93891.81;4913453;29;8737;-64
2023/03/13 02:08:32;;;;;;;;;;;;;;;25.55;39.51;93880.06;4909441;29;7305;-63
2023/03/13 02:11:17;;;;;;;;;;;;;;;25.54;39.02;93871.03;4894864;29;9108;-63
2023/03/13 02:13:46;;;;;;;;;;;;;;;25.55;39.25;93875.28;4909900;29;7280;-63
2023/03/13 02:16:18;;;;;;;;;;;;;;;25.54;39.05;93870.28;4893989;29;7669;-63
2023/03/13 02:18:47;;;;;;;;;;;;;;;25.56;39.81;93873.25;4894697;29;8468;-62
2023/03/13 02:21:29;;;;;;;;;;;;;;;25.56;39.63;93876.75;4894176;29;7036;-63
2023/03/13 02:24:34;;;;;;;;;;;;;;;25.56;38.87;93874.00;4910026;29;7281;-63
2023/03/13 02:27:02;;;;;;;;;;;;;;;25.58;39.36;93881.78;4910955;29;7312;-63
2023/03/13 02:29:28;;;;;;;;;;;;;;;25.59;39.22;93872.22;4907892;29;9657;-63
2023/03/13 02:31:54;;;;;;;;;;;;;;;25.56;38.72;93865.00;4897790;29;7270;-63
2023/03/13 02:34:29;;;;;;;;;;;;;;;25.56;39.42;93865.75;4876636;29;9271;-63
2023/03/13 02:37:00;;;;;;;;;;;;;;;25.57;38.78;93867.25;4890122;29;7263;-63
2023/03/13 02:39:31;;;;;;;;;;;;;;;25.57;39.49;93872.75;4926357;28;6860;-63
2023/03/13 02:42:02;;;;;;;;;;;;;;;25.56;38.67;93878.78;4960238;28;7279;-63
2023/03/13 02:44:28;;;;;;;;;;;;;;;25.54;39.53;93873.78;4947931;28;8991;-64
2023/03/13 02:46:56;;;;;;;;;;;;;;;25.55;39.55;93880.06;4963561;28;7006;-64
2023/03/13 02:49:29;;;;;;;;;;;;;;;25.50;39.12;93870.59;4929732;28;7593;-64
2023/03/13 02:52:31;;;;;;;;;;;;;;;25.55;38.83;93875.28;4958459;28;9099;-63
2023/03/13 02:55:03;;;;;;;;;;;;;;;25.55;39.08;93864.28;4871178;29;7234;-63
2023/03/13 02:57:30;;;;;;;;;;;;;;;25.55;38.73;93869.78;4887625;29;7292;-63
2023/03/13 02:59:59;;;;;;;;;;;;;;;25.51;38.94;93836.31;4888521;29;9164;-63
2023/03/13 03:02:35;;;;;;;;;;;;;;;25.55;38.66;93845.00;4919184;29;7031;-63
2023/03/13 03:05:03;;;;;;;;;;;;;;;25.56;39.08;93831.97;4914752;29;8751;-63
2023/03/13 03:07:32;;;;;;;;;;;;;;;25.56;39.14;93832.72;4922361;29;9293;-63
2023/03/13 03:10:08;;;;;;;;;;;;;;;25.56;39.66;93831.97;4915132;29;9085;-64
2023/03/13 03:12:46;;;;;;;;;;;;;;;25.53;39.63;93814.50;4921597;29;7542;-64
2023/03/13 03:15:17;;;;;;;;;;;;;;;25.55;39.59;93827.72;4913300;29;7507;-63
2023/03/13 03:17:46;;;;;;;;;;;;;;;25.55;38.95;93824.97;4902444;29;9108;-63
2023/03/13 03:20:13;;;;;;;;;;;;;;;25.54;39.56;93826.97;4898641;29;7033;-63
2023/03/13 03:22:42;;;;;;;;;;;;;;;25.54;38.62;93821.47;4915407;29;9018;-63
2023/03/13 03:25:09;;;;;;;;;;;;;;;25.55;38.90;93827.72;4912201;29;9135;-63
2023/03/13 03:27:36;;;;;;;;;;;;;;;25.55;39.03;93824.97;4906406;29;7345;-63
2023/03/13 03:30:04;;;;;;;;;;;;;;;25.50;38.53;93826.53;4966003;28;8663;-63
2023/03/13 03:32:30;;;;;;;;;;;;;;;25.52;39.42;93824.00;4986332;28;7314;-63
2023/03/13 03:34:58;;;;;;;;;;;;;;;25.51;38.82;93819.78;4967713;28;7234;-64
2023/03/13 03:37:24;;;;;;;;;;;;;;;25.50;38.52;93820.28;4974048;28;7632;-63
2023/03/13 03:39:59;;;;;;;;;;;;;;;25.49;39.63;93813.31;4968751;28;9000;-63
2023/03/13 03:42:30;;;;;;;;;;;;;;;25.50;39.39;93807.28;4963288;28;7029;-63
2023/03/13 03:45:16;;;;;;;;;;;;;;;25.49;38.91;93816.78;4973276;28;7361;-63
2023/03/13 03:47:51;;;;;;;;;;;;;;;25.49;38.99;93816.78;4971878;28;9025;-63
2023/03/13 03:50:38;;;;;;;;;;;;;;;25.52;39.45;93813.00;4989836;28;7370;-63
2023/03/13 03:53:09;;;;;;;;;;;;;;;25.51;39.23;93817.03;4964694;28;7033;-63
2023/03/13 03:55:39;;;;;;;;;;;;;;;25.51;38.76;93808.78;4988118;28;7196;-64
2023/03/13 03:58:18;;;;;;;;;;;;;;;25.51;39.78;93808.03;4964750;28;7239;-63
2023/03/13 04:01:12;;;;;;;;;;;;;;;25.51;38.81;93800.50;4983129;28;9488;-62
2023/03/13 04:03:40;;;;;;;;;;;;;;;25.51;39.33;93795.00;4995746;28;9036;-63
2023/03/13 04:06:10;;;;;;;;;;;;;;;25.55;39.06;93794.69;4989825;28;10760;-62
2023/03/13 04:08:36;;;;;;;;;;;;;;;25.54;39.71;93785.69;4978750;28;9040;-63
2023/03/13 04:11:07;;;;;;;;;;;;;;;25.51;39.60;93792.25;4971236;28;8965;-62
2023/03/13 04:13:33;;;;;;;;;;;;;;;25.54;39.61;93793.19;4964045;28;8762;-62
2023/03/13 04:15:59;;;;;;;;;;;;;;;25.54;39.17;93799.44;4973467;28;7262;-63
2023/03/13 04:18:27;;;;;;;;;;;;;;;25.54;38.68;93802.19;4964986;28;7196;-63
2023/03/13 04:21:04;;;;;;;;;;;;;;;25.52;39.09;93799.22;4969951;28;7179;-63
2023/03/13 04:23:30;;;;;;;;;;;;;;;25.50;38.76;93787.25;4963325;28;8637;-63
2023/03/13 04:26:03;;;;;;;;;;;;;;;25.53;39.06;93797.97;4971885;28;7046;-63
2023/03/13 04:28:32;;;;;;;;;;;;;;;25.54;38.94;93801.44;4985646;28;9332;-63
2023/03/13 04:31:17;;;;;;;;;;;;;;;25.55;39.25;93795.44;4988473;28;7024;-63
2023/03/13 04:33:50;;;;;;;;;;;;;;;25.52;38.96;93799.22;4969524;28;7277;-63
2023/03/13 04:36:18;;;;;;;;;;;;;;;25.53;39.33;93803.47;4962486;28;7135;-63
2023/03/13 04:38:49;;;;;;;;;;;;;;;25.52;38.92;93807.50;4977644;28;7282;-63
2023/03/13 04:41:15;;;;;;;;;;;;;;;25.53;39.53;93811.75;4970176;28;7307;-63
2023/03/13 04:43:54;;;;;;;;;;;;;;;25.50;39.50;93807.28;4972957;28;7044;-63
2023/03/13 04:46:23;;;;;;;;;;;;;;;25.53;39.56;93817.25;4976361;28;9403;-63
2023/03/13 04:48:49;;;;;;;;;;;;;;;25.52;38.66;93799.22;4972455;28;9418;-63
2023/03/13 04:51:30;;;;;;;;;;;;;;;25.51;39.54;93808.78;4988676;28;9096;-64
2023/03/13 04:53:56;;;;;;;;;;;;;;;25.50;38.93;93809.28;4968711;28;7420;-63
2023/03/13 04:56:35;;;;;;;;;;;;;;;25.51;39.43;93813.53;4967618;28;7301;-62
2023/03/13 04:59:08;;;;;;;;;;;;;;;25.51;38.67;93800.50;4977856;28;9344;-63
2023/03/13 05:01:37;;;;;;;;;;;;;;;25.51;39.46;93803.25;4969539;28;9514;-63
2023/03/13 05:04:04;;;;;;;;;;;;;;;25.53;39.00;93809.00;4971575;28;7258;-63
2023/03/13 05:06:30;;;;;;;;;;;;;;;25.51;39.63;93802.50;4997899;28;9101;-63
2023/03/13 05:09:25;;;;;;;;;;;;;;;25.50;38.70;93806.53;4986366;28;8432;-63
2023/03/13 05:12:22;;;;;;;;;;;;;;;25.51;38.96;93808.78;4950659;29;9205;-63
2023/03/13 05:14:49;;;;;;;;;;;;;;;25.53;39.40;93803.47;4857382;29;7113;-63
2023/03/13 05:17:16;;;;;;;;;;;;;;;25.51;39.01;93800.50;4855423;29;7033;-63
2023/03/13 05:19:53;;;;;;;;;;;;;;;25.52;39.55;93798.47;4842663;29;7031;-63
2023/03/13 05:22:28;;;;;;;;;;;;;;;25.50;39.06;93801.75;4849917;29;8195;-63
2023/03/13 05:25:03;;;;;;;;;;;;;;;25.51;38.86;93797.75;4842327;29;7261;-64
2023/03/13 05:27:48;;;;;;;;;;;;;;;25.50;39.15;93793.50;4833493;29;7184;-63
2023/03/13 05:30:23;;;;;;;;;;;;;;;25.50;39.36;93799.00;4834452;29;7389;-63
2023/03/13 05:32:53;;;;;;;;;;;;;;;25.49;39.46;93797.50;4837192;29;8735;-62
2023/03/13 05:35:38;;;;;;;;;;;;;;;25.48;38.71;93803.56;4857482;29;8823;-62
2023/03/13 05:38:17;;;;;;;;;;;;;;;25.49;39.38;93805.78;4855939;29;7299;-62
2023/03/13 05:40:53;;;;;;;;;;;;;;;25.49;39.30;93792.00;4854691;29;9179;-62
2023/03/13 05:43:39;;;;;;;;;;;;;;;25.49;39.51;93794.75;4855133;29;7107;-61
2023/03/13 05:46:05;;;;;;;;;;;;;;;25.47;39.02;93786.28;4848825;29;9060;-62
2023/03/13 05:48:33;;;;;;;;;;;;;;;25.45;39.51;93783.31;4879477;29;9081;-62
2023/03/13 05:51:03;;;;;;;;;;;;;;;25.48;39.22;93782.28;4921808;28;9208;-62
2023/03/13 05:53:36;;;;;;;;;;;;;;;25.50;38.97;93784.50;4972543;28;8797;-62
2023/03/13 05:56:21;;;;;;;;;;;;;;;25.50;39.69;93792.75;4972915;28;7272;-63
2023/03/13 05:58:47;;;;;;;;;;;;;;;25.55;39.54;93794.69;4968514;28;7628;-62
2023/03/13 06:01:25;;;;;;;;;;;;;;;25.60;38.85;93794.59;4974731;28;9714;-63
2023/03/13 06:03:54;;;;;;;;;;;;;;;25.58;38.63;93785.38;4978296;28;7283;-63
2023/03/13 06:06:22;;;;;;;;;;;;;;;25.54;38.88;93791.19;4975925;28;9053;-62
2023/03/13 06:08:51;;;;;;;;;;;;;;;25.53;38.92;93789.72;4973586;28;9408;-63
2023/03/13 06:11:17;;;;;;;;;;;;;;;25.55;39.54;93787.19;4967128;28;9096;-63
2023/03/13 06:13:53;;;;;;;;;;;;;;;25.57;38.74;93790.16;4971990;28;7253;-64
2023/03/13 06:16:28;;;;;;;;;;;;;;;25.57;38.88;93795.66;4973874;28;7050;-62
2023/03/13 06:18:59;;;;;;;;;;;;;;;25.55;38.73;93792.69;4975212;28;7041;-62
2023/03/13 06:22:04;;;;;;;;;;;;;;;25.60;39.27;93793.88;4968298;28;9095;-62
2023/03/13 06:24:36;;;;;;;;;;;;;;;25.63;38.84;93792.78;4953534;28;7035;-63
2023/03/13 06:27:02;;;;;;;;;;;;;;;25.67;38.60;93782.22;4955391;28;9080;-62
2023/03/13 06:29:39;;;;;;;;;;;;;;;25.69;38.78;93783.19;4958003;28;9087;-62
2023/03/13 06:32:21;;;;;;;;;;;;;;;25.68;38.65;93773.44;4953842;28;7312;-63
2023/03/13 06:34:47;;;;;;;;;;;;;;;25.70;38.70;93762.63;4953617;28;7354;-62
2023/03/13 06:37:20;;;;;;;;;;;;;;;25.71;38.65;93758.59;4957953;28;8997;-63
2023/03/13 06:39:46;;;;;;;;;;;;;;;25.72;37.98;93762.09;4973799;28;7269;-63
2023/03/13 06:42:22;;;;;;;;;;;;;;;25.70;38.43;93765.41;4950830;28;7250;-62
2023/03/13 06:45:02;;;;;;;;;;;;;;;25.73;37.85;93764.31;4971179;28;9233;-62
2023/03/13 06:47:42;;;;;;;;;;;;;;;25.74;38.51;93756.81;4969655;28;8963;-62
2023/03/13 06:50:12;;;;;;;;;;;;;;;25.74;37.79;93765.06;4956917;28;8554;-62
2023/03/13 06:52:41;;;;;;;;;;;;;;;25.73;37.84;93764.31;4957457;28;9527;-62
2023/03/13 06:55:15;;;;;;;;;;;;;;;25.75;38.22;93772.81;4957067;28;8669;-62
2023/03/13 06:58:19;;;;;;;;;;;;;;;25.76;38.20;93779.81;4954535;28;9201;-63
2023/03/13 07:01:29;;;;;;;;;;;;;;;25.76;38.74;93779.81;4953013;28;9202;-63
2023/03/13 07:03:55;;;;;;;;;;;;;;;25.72;37.97;93778.63;4932896;28;9540;-63
2023/03/13 07:06:41;;;;;;;;;;;;;;;25.70;38.90;93776.41;4955577;28;9309;-63
2023/03/13 07:09:18;;;;;;;;;;;;;;;25.64;38.23;93764.00;4949042;28;9473;-62
2023/03/13 07:11:57;;;;;;;;;;;;;;;25.63;38.27;93763.25;4951512;28;8729;-63
2023/03/13 07:14:33;;;;;;;;;;;;;;;25.61;38.54;93757.53;4938116;28;7319;-62
2023/03/13 07:16:59;;;;;;;;;;;;;;;25.59;38.48;93754.56;4948262;28;7127;-62
2023/03/13 07:19:34;;;;;;;;;;;;;;;25.59;37.95;93749.06;4947140;28;7309;-62
2023/03/13 07:22:01;;;;;;;;;;;;;;;25.59;38.86;93748.31;4944865;28;9057;-62
2023/03/13 07:24:28;;;;;;;;;;;;;;;25.56;39.11;93750.09;4934416;28;7144;-62
2023/03/13 07:26:55;;;;;;;;;;;;;;;25.51;39.02;93748.19;4937432;28;7146;-63
2023/03/13 07:29:30;;;;;;;;;;;;;;;25.54;38.79;93752.63;4931072;29;7938;-62
2023/03/13 07:31:57;;;;;;;;;;;;;;;25.53;39.14;93748.41;4935056;28;7332;-62
2023/03/13 07:34:36;;;;;;;;;;;;;;;25.51;38.62;93733.69;4955023;28;7074;-62
2023/03/13 07:37:09;;;;;;;;;;;;;;;25.52;38.98;93733.13;4967130;28;7132;-62
2023/03/13 07:39:40;;;;;;;;;;;;;;;25.52;39.49;93746.16;4973769;28;8812;-62
2023/03/13 07:42:06;;;;;;;;;;;;;;;25.51;38.81;93737.19;4973714;28;7475;-62
2023/03/13 07:44:32;;;;;;;;;;;;;;;25.53;38.48;93736.66;4974233;28;9063;-62
2023/03/13 07:47:25;;;;;;;;;;;;;;;25.54;39.07;93727.84;4973877;28;7241;-62
2023/03/13 07:49:57;;;;;;;;;;;;;;;25.53;39.25;93734.63;5005216;28;7274;-62
2023/03/13 07:52:34;;;;;;;;;;;;;;;25.54;39.00;93747.13;4979190;28;8721;-62
2023/03/13 07:55:11;;;;;;;;;;;;;;;25.60;38.40;93747.78;4961228;28;7186;-62
2023/03/13 07:57:43;;;;;;;;;;;;;;;25.63;38.52;93757.00;4995227;28;8963;-63
2023/03/13 08:00:15;;;;;;;;;;;;;;;25.64;38.28;93756.50;5002663;28;7110;-62
2023/03/13 08:02:45;;;;;;;;;;;;;;;25.69;38.94;93755.63;4963124;28;7241;-63
2023/03/13 08:05:16;;;;;;;;;;;;;;;25.73;38.84;93750.56;4973392;28;9619;-63
2023/03/13 08:07:45;;;;;;;;;;;;;;;25.76;38.49;93755.03;4971783;28;8994;-63
2023/03/13 08:10:13;;;;;;;;;;;;;;;25.79;38.06;93750.47;4974935;28;6943;-63
2023/03/13 08:12:41;;;;;;;;;;;;;;;25.81;38.67;93750.69;4977027;28;7357;-63
2023/03/13 08:15:08;;;;;;;;;;;;;;;25.82;38.73;93741.88;4973711;28;7338;-62
2023/03/13 08:17:47;;;;;;;;;;;;;;;25.81;38.44;93743.16;4960129;28;9134;-64
2023/03/13 08:20:13;;;;;;;;;;;;;;;25.84;37.91;93746.84;4970963;28;9456;-62
2023/03/13 08:22:56;;;;;;;;;;;;;;;25.85;37.77;93749.09;4973111;28;7135;-63
2023/03/13 08:25:24;;;;;;;;;;;;;;;25.88;38.07;93747.31;4972702;28;7197;-64
2023/03/13 08:27:50;;;;;;;;;;;;;;;25.90;38.13;93750.28;4971231;28;7306;-63
2023/03/13 08:30:25;;;;;;;;;;;;;;;25.89;38.22;93751.53;4967158;28;7053;-63
2023/03/13 08:32:52;;;;;;;;;;;;;;;25.94;37.80;93761.72;4970619;28;7005;-63
2023/03/13 08:35:18;;;;;;;;;;;;;;;25.92;38.73;93747.75;4969572;28;7077;-63
2023/03/13 08:37:44;;;;;;;;;;;;;;;25.94;37.84;93754.22;4966653;28;7656;-64
2023/03/13 08:40:10;;;;;;;;;;;;;;;25.89;38.54;93749.53;4980871;28;7247;-63
2023/03/13 08:42:37;;;;;;;;;;;;;;;25.93;38.11;93738.94;4969754;28;7034;-63
2023/03/13 08:45:09;;;;;;;;;;;;;;;25.94;38.34;93745.94;4966578;28;7292;-63
2023/03/13 08:47:35;;;;;;;;;;;;;;;25.95;37.86;93741.16;4973688;28;7020;-63
2023/03/13 08:50:07;;;;;;;;;;;;;;;25.98;38.44;93746.38;4971111;28;7255;-62
2023/03/13 08:52:35;;;;;;;;;;;;;;;26.00;38.27;93732.78;4973536;28;8910;-63
2023/03/13 08:55:06;;;;;;;;;;;;;;;25.98;37.75;93731.84;4996684;28;7246;-63
2023/03/13 08:57:34;;;;;;;;;;;;;;;25.99;38.64;93725.78;4970848;28;8406;-63
2023/03/13 09:00:03;;;;;;;;;;;;;;;26.01;37.79;93719.78;5004061;28;9340;-63
2023/03/13 09:02:29;;;;;;;;;;;;;;;26.00;38.71;93715.50;4968699;28;9333;-64
2023/03/13 09:04:55;;;;;;;;;;;;;;;26.01;38.63;93701.19;4986250;28;9135;-64
2023/03/13 09:07:23;;;;;;;;;;;;;;;25.96;37.80;93693.81;4959791;28;7065;-64
2023/03/13 09:09:50;;;;;;;;;;;;;;;25.99;37.95;93698.22;4995600;28;8700;-64
2023/03/13 09:12:16;;;;;;;;;;;;;;;26.05;37.88;93700.91;4977424;28;9376;-63
2023/03/13 09:14:44;;;;;;;;;;;;;;;26.03;37.99;93692.44;4971437;28;8997;-64
2023/03/13 09:17:10;;;;;;;;;;;;;;;26.04;38.20;93697.41;4988042;28;9115;-64
2023/03/13 09:19:36;;;;;;;;;;;;;;;26.06;37.60;93689.34;4967274;28;7047;-64
2023/03/13 09:22:04;;;;;;;;;;;;;;;26.07;38.33;93695.59;4983818;28;7085;-64
2023/03/13 09:24:30;;;;;;;;;;;;;;;26.08;38.50;93689.56;4975042;28;7281;-63
2023/03/13 09:27:02;;;;;;;;;;;;;;;26.09;37.69;93682.81;4951071;28;8669;-63
2023/03/13 09:29:32;;;;;;;;;;;;;;;26.10;38.61;93672.50;4970910;28;7072;-64
2023/03/13 09:31:59;;;;;;;;;;;;;;;26.10;38.63;93667.75;4979320;28;9456;-63
2023/03/13 09:34:27;;;;;;;;;;;;;;;26.08;38.04;93653.75;4965302;28;9027;-63
2023/03/13 09:36:53;;;;;;;;;;;;;;;26.12;38.53;93654.16;4955729;28;7117;-63
2023/03/13 09:39:19;;;;;;;;;;;;;;;26.11;37.97;93643.69;4964804;28;8284;-63
2023/03/13 09:41:54;;;;;;;;;;;;;;;26.11;37.91;93647.19;4969940;28;9309;-64
2023/03/13 09:44:24;;;;;;;;;;;;;;;26.12;37.99;93639.66;4965278;28;8724;-64
2023/03/13 09:46:52;;;;;;;;;;;;;;;26.14;38.60;93637.13;4970280;28;7406;-64
2023/03/13 09:49:33;;;;;;;;;;;;;;;26.14;38.55;93629.56;4973752;28;7275;-63
2023/03/13 09:52:15;;;;;;;;;;;;;;;26.12;37.99;93645.91;4975215;28;7234;-64
2023/03/13 09:55:15;;;;;;;;;;;;;;;26.14;38.31;93639.88;4976817;28;7263;-64
2023/03/13 09:57:52;;;;;;;;;;;;;;;26.17;37.71;93645.06;4994514;28;9468;-64
2023/03/13 10:00:32;;;;;;;;;;;;;;;26.16;37.75;93627.00;4973550;28;9320;-65
2023/03/13 10:03:44;;;;;;;;;;;;;;;26.19;37.89;93616.22;4966414;28;9139;-64
2023/03/13 10:06:26;;;;;;;;;;;;;;;26.20;38.19;93618.44;4973955;28;7129;-64
2023/03/13 10:08:52;;;;;;;;;;;;;;;26.23;37.94;93605.63;4983390;28;9048;-64
2023/03/13 10:11:43;;;;;;;;;;;;;;;26.24;37.64;93601.56;4976787;28;7594;-64
2023/03/13 10:14:22;;;;;;;;;;;;;;;26.25;37.74;93603.06;4984764;28;7054;-65
2023/03/13 10:17:00;;;;;;;;;;;;;;;26.24;37.71;93598.81;4976102;28;7174;-65
2023/03/13 10:19:42;;;;;;;;;;;;;;;26.25;38.24;93583.75;4976302;28;9014;-64
2023/03/13 10:22:22;;;;;;;;;;;;;;;26.26;38.28;93582.47;4998726;28;8691;-64
2023/03/13 10:25:17;;;;;;;;;;;;;;;26.26;38.30;93576.97;4986744;28;9120;-63
2023/03/13 10:28:04;;;;;;;;;;;;;;;26.27;37.54;93575.69;4967690;28;7262;-64
2023/03/13 10:30:50;;;;;;;;;;;;;;;26.27;38.09;93575.69;4991045;28;7291;-64
2023/03/13 10:33:25;;;;;;;;;;;;;;;26.29;37.85;93575.91;4990907;28;9021;-64
2023/03/13 10:36:05;;;;;;;;;;;;;;;26.29;37.76;93571.13;4976802;28;9355;-64
2023/03/13 10:38:53;;;;;;;;;;;;;;;26.30;38.18;93567.09;5005345;28;8941;-64
2023/03/13 10:41:28;;;;;;;;;;;;;;;26.30;38.31;93563.59;4966428;28;9009;-64
2023/03/13 10:44:02;;;;;;;;;;;;;;;26.32;37.64;93566.56;4966175;28;7184;-63
2023/03/13 10:46:32;;;;;;;;;;;;;;;26.31;37.83;93559.56;4970057;28;7123;-63
2023/03/13 10:49:26;;;;;;;;;;;;;;;26.30;37.80;93556.06;4983308;28;7151;-64
2023/03/13 10:51:55;;;;;;;;;;;;;;;26.30;38.26;93556.06;4996694;28;7384;-64
2023/03/13 10:54:28;;;;;;;;;;;;;;;26.28;38.12;93557.88;4976751;28;7156;-64
2023/03/13 10:57:24;;;;;;;;;;;;;;;26.29;37.99;93534.56;4965969;28;7308;-64
2023/03/13 10:59:57;;;;;;;;;;;;;;;26.29;37.63;93529.03;4995283;28;7250;-64
2023/03/13 11:02:37;;;;;;;;;;;;;;;26.32;38.13;93531.44;4967251;28;7195;-64
2023/03/13 11:05:27;;;;;;;;;;;;;;;26.34;37.63;93525.41;4963355;28;9521;-64
2023/03/13 11:07:57;;;;;;;;;;;;;;;26.35;37.64;93518.63;4968510;28;8269;-64
2023/03/13 11:10:51;;;;;;;;;;;;;;;26.37;38.00;93516.06;4980286;28;9421;-64
2023/03/13 11:13:41;;;;;;;;;;;;;;;26.38;38.31;93509.28;4975011;28;9502;-64
2023/03/13 11:16:35;;;;;;;;;;;;;;;26.38;38.20;93498.97;4974881;28;9044;-63
2023/03/13 11:19:57;;;;;;;;;;;;;;;26.41;37.52;93497.91;4979976;28;7259;-64
2023/03/13 11:22:59;;;;;;;;;;;;;;;26.42;37.91;93484.88;4933652;28;8575;-63
2023/03/13 11:25:36;;;;;;;;;;;;;;;26.43;37.45;93480.81;4916010;29;7286;-63
2023/03/13 11:28:26;;;;;;;;;;;;;;;26.42;38.05;93473.84;4923468;28;8932;-63
2023/03/13 11:31:19;;;;;;;;;;;;;;;26.42;37.88;93473.84;4932883;28;8585;-63
2023/03/13 11:33:59;;;;;;;;;;;;;;;26.39;38.15;93470.13;4904624;29;7258;-63
2023/03/13 11:37:11;;;;;;;;;;;;;;;26.42;37.65;93469.06;4931833;29;7308;-63
2023/03/13 11:40:09;;;;;;;;;;;;;;;26.44;37.67;93454.75;4885982;29;7227;-64
2023/03/13 11:46:18;;;;;;;;;;;;;;;26.46;38.36;93435.63;4880147;29;7538;-63
2023/03/13 11:49:13;;;;;;;;;;;;;;;26.44;38.08;93430.66;4866108;29;7366;-63
2023/03/13 11:52:10;;;;;;;;;;;;;;;26.45;38.07;93437.66;4865296;29;9260;-63
2023/03/13 11:55:13;;;;;;;;;;;;;;;26.48;37.86;93430.31;4863252;29;7470;-63
2023/03/13 11:57:58;;;;;;;;;;;;;;;26.47;38.08;93420.59;4873284;29;8928;-63
2023/03/13 12:00:39;;;;;;;;;;;;;;;26.48;38.20;93417.28;4889800;29;9072;-64
2023/03/13 12:03:10;;;;;;;;;;;;;;;26.52;37.95;93416.94;4867399;29;9007;-63
2023/03/13 12:06:03;;;;;;;;;;;;;;;26.52;37.53;93405.91;4873130;29;9552;-63
2023/03/13 12:09:10;;;;;;;;;;;;;;;26.55;38.27;93410.34;4876845;29;10089;-63
2023/03/13 12:12:24;;;;;;;;;;;;;;;26.53;38.24;93404.63;4908776;29;9709;-63
2023/03/13 12:14:59;;;;;;;;;;;;;;;26.55;38.06;93405.56;4877429;29;7252;-64
2023/03/13 12:17:40;;;;;;;;;;;;;;;26.57;38.62;93388.47;4891647;29;7053;-63
2023/03/13 12:20:18;;;;;;;;;;;;;;;26.56;38.18;93376.69;4876856;29;6916;-63
2023/03/13 12:23:15;;;;;;;;;;;;;;;26.57;38.11;93374.69;4913368;28;9095;-63
2023/03/13 12:26:29;;;;;;;;;;;;;;;26.60;38.10;93368.09;4920443;28;9444;-63
2023/03/13 12:29:28;;;;;;;;;;;;;;;26.60;38.32;93370.84;4916883;29;7693;-63
2023/03/13 12:32:23;;;;;;;;;;;;;;;26.60;37.65;93366.06;4941717;28;7308;-63
2023/03/13 12:35:13;;;;;;;;;;;;;;;26.63;37.95;93355.97;4926231;28;7132;-63
2023/03/13 12:38:21;;;;;;;;;;;;;;;26.63;37.83;93350.44;4933949;29;9051;-63
2023/03/13 12:41:06;;;;;;;;;;;;;;;26.61;37.95;93351.00;4946437;28;9503;-63
2023/03/13 12:43:35;;;;;;;;;;;;;;;26.63;37.55;93320.13;4923821;29;9063;-63
2023/03/13 12:46:28;;;;;;;;;;;;;;;26.61;38.18;93315.16;4922400;29;9581;-63
2023/03/13 12:49:35;;;;;;;;;;;;;;;26.63;37.72;93298.78;4944043;29;7276;-63
2023/03/13 12:52:20;;;;;;;;;;;;;;;26.67;38.06;93290.16;4983848;28;8967;-63
2023/03/13 12:55:27;;;;;;;;;;;;;;;26.68;38.10;93286.13;4964862;28;7043;-63
2023/03/13 12:58:22;;;;;;;;;;;;;;;26.68;37.77;93291.66;4913264;29;7275;-62
2023/03/13 13:00:52;;;;;;;;;;;;;;;26.67;37.06;93276.38;4923112;29;9278;-63
2023/03/13 13:03:50;;;;;;;;;;;;;;;26.69;37.67;93276.56;4930527;29;9016;-63
2023/03/13 13:07:02;;;;;;;;;;;;;;;26.70;37.38;93244.94;4883920;29;9091;-63
2023/03/13 13:10:10;;;;;;;;;;;;;;;26.73;37.35;93243.91;4875468;29;9429;-63
2023/03/13 13:13:14;;;;;;;;;;;;;;;26.75;37.50;93233.75;4865463;29;7019;-62
2023/03/13 13:16:12;;;;;;;;;;;;;;;26.77;37.64;93220.16;4858531;29;7243;-62
2023/03/13 13:18:52;;;;;;;;;;;;;;;26.80;37.40;93199.03;4824484;29;7622;-62
2023/03/13 13:21:25;;;;;;;;;;;;;;;26.84;37.51;93185.59;4824903;29;8712;-63
2023/03/13 13:23:55;;;;;;;;;;;;;;;26.84;37.38;93183.59;4801089;29;7366;-62
2023/03/13 13:26:29;;;;;;;;;;;;;;;26.86;37.68;93169.25;4824651;29;8985;-63
2023/03/13 13:29:33;;;;;;;;;;;;;;;26.88;37.04;93164.66;4824954;29;7242;-63
2023/03/13 13:32:13;;;;;;;;;;;;;;;26.89;37.45;93162.63;4824185;29;7018;-63
2023/03/13 13:35:05;;;;;;;;;;;;;;;26.89;37.80;93148.84;4817994;29;7107;-63
2023/03/13 13:37:42;;;;;;;;;;;;;;;26.89;37.32;93165.41;4824858;29;8726;-63
2023/03/13 13:41:01;;;;;;;;;;;;;;;26.92;37.69;93158.78;4824433;29;7315;-63
2023/03/13 13:44:16;;;;;;;;;;;;;;;26.94;37.81;93150.69;4788198;30;9007;-62
2023/03/13 13:46:53;;;;;;;;;;;;;;;26.92;37.13;93147.75;4774016;29;8284;-63
2023/03/13 13:49:29;;;;;;;;;;;;;;;26.95;37.28;93138.34;4789562;29;9097;-62
2023/03/13 13:52:02;;;;;;;;;;;;;;;26.95;37.68;93137.66;4797179;29;6957;-62
2023/03/13 13:54:54;;;;;;;;;;;;;;;26.97;37.31;93121.28;4783528;29;9411;-63